createdAt,value
2022-11-15T00:01:10.414Z,29.87
2022-11-15T00:03:38.044Z,30.20
2022-11-15T00:06:06.681Z,29.93
2022-11-15T00:08:34.830Z,29.83
2022-11-15T00:11:04.338Z,32.03
2022-11-15T00:13:32.691Z,31.20
2022-11-15T00:16:03.226Z,29.10
2022-11-15T00:18:31.913Z,29.37
2022-11-15T00:21:05.812Z,28.93
2022-11-15T00:23:33.744Z,28.90
2022-11-15T00:26:01.807Z,28.73
2022-11-15T00:28:29.458Z,27.67
2022-11-15T00:31:03.919Z,28.63
2022-11-15T00:33:32.876Z,27.47
2022-11-15T00:36:05.666Z,27.80
2022-11-15T00:38:34.683Z,26.30
2022-11-15T00:41:08.905Z,26.93
2022-11-15T00:43:37.674Z,27.23
2022-11-15T00:46:15.528Z,26.93
2022-11-15T00:48:43.139Z,25.57
2022-11-15T00:51:10.723Z,25.53
2022-11-15T00:53:38.302Z,24.10
2022-11-15T00:56:06.257Z,23.93
2022-11-15T00:58:34.095Z,21.70
2022-11-15T01:01:08.918Z,24.83
2022-11-15T01:03:38.745Z,22.97
2022-11-15T01:06:07.575Z,24.37
2022-11-15T01:08:35.645Z,23.53
2022-11-15T01:11:04.605Z,24.17
2022-11-15T01:13:33.949Z,24.07
2022-11-15T01:16:07.260Z,23.27
2022-11-15T01:18:34.893Z,23.03
2022-11-15T01:21:08.888Z,22.60
2022-11-15T01:23:36.687Z,22.90
2022-11-15T01:26:06.596Z,23.43
2022-11-15T01:28:35.959Z,23.97
2022-11-15T01:31:06.523Z,23.10
2022-11-15T01:33:36.732Z,23.10
2022-11-15T01:36:08.108Z,24.53
2022-11-15T01:38:36.304Z,23.53
2022-11-15T01:41:03.963Z,25.07
2022-11-15T01:43:34.206Z,24.67
2022-11-15T01:46:06.243Z,23.90
2022-11-15T01:48:35.334Z,24.40
2022-11-15T01:51:06.931Z,22.80
2022-11-15T01:53:39.228Z,21.67
2022-11-15T01:56:10.549Z,21.40
2022-11-15T01:58:39.055Z,22.30
2022-11-15T02:01:06.781Z,23.00
2022-11-15T02:03:43.759Z,22.67
2022-11-15T02:06:12.116Z,23.07
2022-11-15T02:08:41.041Z,20.73
2022-11-15T02:11:10.409Z,20.03
2022-11-15T02:13:38.655Z,21.23
2022-11-15T02:16:17.093Z,18.93
2022-11-15T02:18:51.130Z,20.63
2022-11-15T02:21:28.161Z,19.93
2022-11-15T02:24:13.876Z,18.47
2022-11-15T02:27:08.709Z,19.07
2022-11-15T02:29:54.919Z,18.67
2022-11-15T02:32:33.002Z,18.63
2022-11-15T02:35:09.287Z,19.20
2022-11-15T02:37:43.579Z,19.00
2022-11-15T02:40:19.273Z,17.87
2022-11-15T02:43:09.996Z,17.27
2022-11-15T02:45:41.783Z,17.90
2022-11-15T02:48:12.255Z,17.57
2022-11-15T02:50:40.294Z,16.13
2022-11-15T02:53:10.365Z,15.30
2022-11-15T02:55:40.122Z,16.47
2022-11-15T02:58:30.126Z,15.53
2022-11-15T03:01:06.228Z,16.53
2022-11-15T03:03:51.457Z,15.30
2022-11-15T03:06:29.100Z,16.70
2022-11-15T03:09:06.132Z,15.53
2022-11-15T03:11:39.413Z,16.63
2022-11-15T03:14:16.892Z,16.70
2022-11-15T03:16:49.962Z,16.07
2022-11-15T03:19:27.828Z,15.83
2022-11-15T03:21:57.569Z,15.80
2022-11-15T03:24:27.119Z,15.50
2022-11-15T03:26:56.910Z,15.73
2022-11-15T03:29:29.555Z,14.87
2022-11-15T03:32:02.706Z,16.00
2022-11-15T03:34:36.870Z,16.07
2022-11-15T03:37:06.355Z,15.97
2022-11-15T03:39:34.617Z,15.57
2022-11-15T03:42:16.027Z,16.13
2022-11-15T03:44:48.633Z,18.00
2022-11-15T03:47:21.622Z,18.47
2022-11-15T03:49:55.730Z,16.77
2022-11-15T03:52:24.243Z,19.10
2022-11-15T03:54:54.486Z,17.63
2022-11-15T03:57:22.333Z,17.87
2022-11-15T03:59:49.914Z,17.87
2022-11-15T04:02:17.640Z,17.87
2022-11-15T04:04:45.277Z,20.13
2022-11-15T04:07:14.562Z,19.10
2022-11-15T04:09:56.616Z,18.30
2022-11-15T04:12:31.702Z,18.20
2022-11-15T04:15:09.732Z,18.30
2022-11-15T04:17:39.747Z,17.83
2022-11-15T04:20:27.939Z,19.20
2022-11-15T04:23:15.571Z,19.93
2022-11-15T04:25:44.335Z,19.67
2022-11-15T04:28:12.701Z,19.60
2022-11-15T04:30:40.700Z,20.10
2022-11-15T04:33:08.489Z,19.00
2022-11-15T04:35:36.126Z,19.83
2022-11-15T04:38:06.400Z,19.07
2022-11-15T04:40:34.210Z,19.20
2022-11-15T04:43:03.815Z,19.83
2022-11-15T04:45:32.186Z,21.20
2022-11-15T04:47:59.753Z,20.70
2022-11-15T04:50:27.338Z,20.00
2022-11-15T04:52:56.143Z,19.63
2022-11-15T04:55:25.066Z,20.57
2022-11-15T04:58:01.050Z,20.87
2022-11-15T05:00:29.815Z,20.83
2022-11-15T05:03:15.211Z,20.03
2022-11-15T05:05:43.260Z,20.27
2022-11-15T05:08:10.848Z,21.17
2022-11-15T05:10:39.837Z,21.10
2022-11-15T05:13:07.414Z,20.63
2022-11-15T05:15:35.027Z,22.43
2022-11-15T05:18:02.675Z,22.57
2022-11-15T05:20:30.280Z,22.13
2022-11-15T05:22:57.907Z,21.97
2022-11-15T05:25:25.586Z,22.23
2022-11-15T05:27:54.990Z,21.43
2022-11-15T05:30:22.607Z,19.67
2022-11-15T05:32:50.825Z,21.27
2022-11-15T05:35:22.648Z,20.67
2022-11-15T05:37:50.676Z,19.27
2022-11-15T05:40:18.322Z,20.00
2022-11-15T05:42:47.361Z,18.97
2022-11-15T05:45:16.669Z,20.40
2022-11-15T05:47:45.530Z,17.67
2022-11-15T05:50:14.335Z,18.70
2022-11-15T05:52:42.111Z,18.53
2022-11-15T05:55:10.985Z,19.07
2022-11-15T05:57:38.642Z,18.63
2022-11-15T06:00:07.739Z,16.83
2022-11-15T06:02:37.058Z,16.63
2022-11-15T06:05:05.290Z,16.70
2022-11-15T06:07:33.071Z,17.33
2022-11-15T06:10:00.737Z,15.83
2022-11-15T06:12:28.312Z,16.50
2022-11-15T06:14:55.875Z,16.00
2022-11-15T06:17:23.479Z,16.80
2022-11-15T06:19:52.384Z,17.30
2022-11-15T06:22:19.994Z,16.43
2022-11-15T06:24:47.693Z,15.60
2022-11-15T06:27:15.601Z,16.60
2022-11-15T06:29:43.202Z,15.87
2022-11-15T06:32:10.946Z,17.47
2022-11-15T06:35:13.127Z,16.07
2022-11-15T06:37:42.303Z,16.70
2022-11-15T06:40:11.683Z,16.73
2022-11-15T06:42:39.274Z,17.27
2022-11-15T06:45:07.784Z,16.70
2022-11-15T06:47:35.453Z,16.10
2022-11-15T06:50:03.106Z,15.17
2022-11-15T06:52:33.445Z,17.07
2022-11-15T06:55:02.396Z,15.53
2022-11-15T06:57:29.962Z,15.70
2022-11-15T06:59:57.547Z,15.23
2022-11-15T07:02:25.201Z,16.57
2022-11-15T07:04:52.786Z,16.53
2022-11-15T07:07:20.489Z,16.17
2022-11-15T07:09:48.131Z,16.80
2022-11-15T07:12:17.102Z,16.30
2022-11-15T07:14:44.679Z,15.80
2022-11-15T07:17:12.256Z,15.83
2022-11-15T07:19:39.813Z,16.00
2022-11-15T07:22:07.447Z,15.53
2022-11-15T07:24:35.028Z,15.43
2022-11-15T07:27:02.612Z,15.40
2022-11-15T07:29:31.673Z,16.10
2022-11-15T07:31:59.966Z,15.40
2022-11-15T07:34:27.619Z,15.87
2022-11-15T07:36:55.182Z,14.90
2022-11-15T07:39:22.786Z,15.03
2022-11-15T07:42:10.335Z,15.30
2022-11-15T07:44:39.256Z,16.20
2022-11-15T07:47:06.843Z,15.90
2022-11-15T07:49:34.465Z,15.00
2022-11-15T07:52:02.064Z,14.83
2022-11-15T07:54:29.694Z,16.00
2022-11-15T07:56:59.200Z,15.63
2022-11-15T07:59:28.850Z,14.80
2022-11-15T08:01:58.014Z,17.00
2022-11-15T08:04:25.804Z,14.53
2022-11-15T08:06:53.424Z,14.17
2022-11-15T08:09:21.082Z,15.07
2022-11-15T08:11:48.643Z,16.07
2022-11-15T08:14:16.275Z,14.83
2022-11-15T08:16:43.986Z,14.40
2022-11-15T08:19:12.891Z,15.27
2022-11-15T08:21:40.603Z,14.10
2022-11-15T08:24:11.859Z,14.00
2022-11-15T08:26:40.446Z,15.13
2022-11-15T08:29:09.539Z,14.43
2022-11-15T08:31:38.264Z,14.97
2022-11-15T08:34:06.471Z,15.67
2022-11-15T08:36:43.256Z,15.43
2022-11-15T08:39:14.301Z,16.10
2022-11-15T08:41:41.990Z,16.50
2022-11-15T08:44:09.609Z,15.73
2022-11-15T08:46:37.311Z,15.57
2022-11-15T08:49:04.888Z,15.33
2022-11-15T08:51:32.535Z,14.27
2022-11-15T08:54:01.527Z,13.50
2022-11-15T08:56:29.122Z,13.50
2022-11-15T08:58:56.722Z,13.17
2022-11-15T09:01:24.790Z,13.33
2022-11-15T09:03:52.503Z,12.77
2022-11-15T09:06:20.208Z,12.30
2022-11-15T09:08:48.669Z,12.23
2022-11-15T09:11:21.067Z,11.07
2022-11-15T09:13:48.803Z,10.87
2022-11-15T09:16:16.428Z,11.27
2022-11-15T09:18:44.033Z,11.07
2022-11-15T09:21:11.918Z,11.03
2022-11-15T09:23:40.206Z,10.83
2022-11-15T09:26:08.051Z,10.93
2022-11-15T09:28:39.100Z,11.03
2022-11-15T09:31:07.847Z,10.73
2022-11-15T09:33:36.011Z,9.77
2022-11-15T09:36:06.240Z,10.80
2022-11-15T09:38:35.014Z,9.80
2022-11-15T09:41:27.968Z,11.13
2022-11-15T09:44:09.272Z,11.63
2022-11-15T09:46:47.837Z,9.97
2022-11-15T09:49:17.447Z,10.70
2022-11-15T09:51:48.566Z,9.93
2022-11-15T09:57:16.504Z,10.37
2022-11-15T10:00:23.888Z,10.37
2022-11-15T10:03:02.977Z,10.13
2022-11-15T10:05:31.094Z,10.80
2022-11-15T10:08:05.603Z,10.30
2022-11-15T10:10:41.368Z,10.77
2022-11-15T10:13:15.621Z,11.43
2022-11-15T10:15:48.663Z,10.97
2022-11-15T10:18:20.196Z,10.67
2022-11-15T10:20:55.079Z,12.40
2022-11-15T10:23:24.378Z,11.90
2022-11-15T10:25:54.987Z,11.10
2022-11-15T10:28:28.161Z,12.93
2022-11-15T10:30:59.241Z,12.53
2022-11-15T10:33:32.535Z,13.07
2022-11-15T10:36:20.927Z,11.27
2022-11-15T10:38:59.283Z,10.43
2022-11-15T10:41:40.867Z,11.93
2022-11-15T10:44:24.043Z,11.50
2022-11-15T10:47:22.255Z,12.13
2022-11-15T10:49:57.830Z,11.23
2022-11-15T10:52:26.201Z,11.17
2022-11-15T10:54:59.042Z,10.67
2022-11-15T10:57:30.593Z,11.03
2022-11-15T11:00:00.848Z,11.73
2022-11-15T11:02:33.765Z,12.10
2022-11-15T11:05:02.433Z,11.50
2022-11-15T11:07:32.751Z,12.30
2022-11-15T11:10:02.957Z,10.43
2022-11-15T11:12:33.839Z,11.77
2022-11-15T11:15:04.112Z,11.43
2022-11-15T11:17:52.081Z,9.53
2022-11-15T11:20:25.273Z,10.20
2022-11-15T11:23:04.557Z,10.53
2022-11-15T11:25:37.540Z,9.53
2022-11-15T11:28:17.088Z,9.93
2022-11-15T11:31:02.082Z,9.87
2022-11-15T11:33:35.249Z,9.90
2022-11-15T11:36:13.841Z,9.43
2022-11-15T11:38:56.731Z,9.40
2022-11-15T11:41:40.826Z,10.17
2022-11-15T11:44:26.646Z,9.87
2022-11-15T11:47:02.594Z,9.33
2022-11-15T11:49:41.033Z,8.37
2022-11-15T11:52:15.364Z,8.87
2022-11-15T11:54:51.087Z,8.97
2022-11-15T11:57:27.678Z,8.80
2022-11-15T12:00:00.529Z,9.20
2022-11-15T12:02:32.132Z,8.33
2022-11-15T12:05:09.823Z,8.37
2022-11-15T12:07:40.808Z,8.37
2022-11-15T12:10:20.891Z,7.90
2022-11-15T12:12:56.962Z,8.80
2022-11-15T12:15:28.005Z,8.67
2022-11-15T12:17:57.805Z,9.60
2022-11-15T12:20:30.363Z,8.90
2022-11-15T12:23:02.313Z,8.43
2022-11-15T12:25:33.633Z,8.73
2022-11-15T12:28:05.340Z,9.80
2022-11-15T12:30:46.114Z,8.50
2022-11-15T12:33:36.647Z,8.97
2022-11-15T12:36:07.597Z,9.20
2022-11-15T12:38:58.759Z,9.43
2022-11-15T12:41:28.169Z,8.43
2022-11-15T12:43:56.561Z,8.17
2022-11-15T12:47:04.934Z,7.73
2022-11-15T12:49:46.309Z,8.83
2022-11-15T12:52:16.256Z,8.60
2022-11-15T12:55:25.184Z,9.03
2022-11-15T12:57:54.075Z,8.63
2022-11-15T13:00:48.436Z,8.37
2022-11-15T13:03:37.248Z,7.93
2022-11-15T13:06:10.524Z,8.03
2022-11-15T13:08:51.861Z,8.20
2022-11-15T13:11:45.945Z,8.43
2022-11-15T13:14:44.466Z,7.73
2022-11-15T13:17:24.722Z,7.87
2022-11-15T13:20:00.143Z,8.07
2022-11-15T13:22:46.157Z,8.50
2022-11-15T13:25:41.904Z,8.53
2022-11-15T13:28:20.262Z,7.97
2022-11-15T13:30:53.516Z,8.83
2022-11-15T13:33:24.159Z,8.43
2022-11-15T13:35:54.694Z,8.90
2022-11-15T13:38:29.096Z,9.00
2022-11-15T13:41:00.466Z,8.50
2022-11-15T13:43:37.166Z,8.50
2022-11-15T13:46:15.103Z,9.47
2022-11-15T13:48:44.174Z,9.37
2022-11-15T13:51:20.473Z,8.90
2022-11-15T13:53:54.156Z,8.90
2022-11-15T13:56:23.718Z,8.93
2022-11-15T13:58:51.443Z,8.90
2022-11-15T14:01:22.134Z,7.50
2022-11-15T14:03:54.540Z,8.40
2022-11-15T14:06:25.377Z,8.80
2022-11-15T14:09:30.863Z,9.47
2022-11-15T14:12:00.347Z,9.80
2022-11-15T14:14:29.640Z,8.47
2022-11-15T14:16:59.256Z,9.30
2022-11-15T14:19:38.787Z,10.03
2022-11-15T14:22:14.788Z,9.30
2022-11-15T14:24:45.154Z,9.83
2022-11-15T14:27:35.008Z,9.50
2022-11-15T14:30:03.143Z,9.20
2022-11-15T14:32:39.476Z,9.60
2022-11-15T14:35:15.998Z,9.10
2022-11-15T14:37:43.757Z,9.60
2022-11-15T14:40:16.003Z,9.87
2022-11-15T14:42:47.045Z,10.13
2022-11-15T14:45:17.996Z,9.60
2022-11-15T14:47:46.102Z,10.03
2022-11-15T14:50:14.951Z,9.93
2022-11-15T14:52:43.874Z,10.30
2022-11-15T14:55:20.517Z,10.57
2022-11-15T14:57:50.257Z,9.60
2022-11-15T15:00:19.079Z,10.10
2022-11-15T15:02:48.402Z,8.90
2022-11-15T15:05:19.203Z,9.60
2022-11-15T15:07:47.550Z,9.13
2022-11-15T15:10:39.082Z,8.73
2022-11-15T15:13:07.659Z,9.53
2022-11-15T15:15:37.651Z,8.97
2022-11-15T15:18:06.642Z,8.70
2022-11-15T15:20:34.623Z,7.93
2022-11-15T15:23:02.488Z,8.60
2022-11-15T15:25:32.891Z,8.10
2022-11-15T15:28:01.427Z,8.57
2022-11-15T15:30:32.388Z,9.00
2022-11-15T15:33:00.128Z,8.53
2022-11-15T15:35:32.241Z,8.60
2022-11-15T15:38:00.722Z,8.87
2022-11-15T15:40:30.673Z,8.80
2022-11-15T15:42:58.776Z,10.50
2022-11-15T15:45:27.834Z,9.63
2022-11-15T15:47:57.245Z,8.90
2022-11-15T15:50:27.657Z,9.63
2022-11-15T15:52:57.803Z,10.10
2022-11-15T15:55:26.627Z,17.73
2022-11-15T15:57:54.431Z,11.23
2022-11-15T16:00:24.412Z,9.47
2022-11-15T16:02:52.587Z,9.17
2022-11-15T16:05:22.009Z,10.07
2022-11-15T16:07:50.076Z,9.50
2022-11-15T16:10:25.787Z,8.97
2022-11-15T16:12:54.646Z,9.23
2022-11-15T16:15:24.396Z,9.20
2022-11-15T16:17:54.147Z,9.57
2022-11-15T16:20:31.145Z,9.67
2022-11-15T16:23:01.132Z,9.27
2022-11-15T16:25:36.260Z,10.20
2022-11-15T16:28:03.996Z,9.73
2022-11-15T16:30:32.004Z,11.33
2022-11-15T16:32:59.911Z,12.03
2022-11-15T16:35:29.162Z,11.20
2022-11-15T16:37:57.121Z,11.40
2022-11-15T16:40:29.361Z,10.57
2022-11-15T16:42:57.969Z,11.00
2022-11-15T16:45:25.868Z,10.90
2022-11-15T16:47:54.913Z,10.77
2022-11-15T16:50:25.050Z,12.10
2022-11-15T16:52:55.892Z,12.63
2022-11-15T16:55:26.582Z,36.10
2022-11-15T16:57:55.172Z,15.40
2022-11-15T17:00:23.069Z,11.17
2022-11-15T17:02:52.509Z,11.13
2022-11-15T17:05:22.685Z,10.67
2022-11-15T17:07:54.248Z,11.13
2022-11-15T17:10:24.849Z,10.93
2022-11-15T17:12:53.573Z,12.77
2022-11-15T17:15:21.556Z,13.60
2022-11-15T17:17:53.791Z,14.40
2022-11-15T17:20:24.098Z,13.90
2022-11-15T17:22:52.933Z,11.97
2022-11-15T17:25:21.188Z,11.87
2022-11-15T17:27:50.559Z,11.07
2022-11-15T17:30:18.775Z,10.77
2022-11-15T17:32:47.858Z,11.20
2022-11-15T17:35:16.143Z,11.30
2022-11-15T17:37:44.379Z,11.73
2022-11-15T17:40:12.754Z,11.47
2022-11-15T17:42:41.970Z,12.47
2022-11-15T17:45:12.374Z,11.40
2022-11-15T17:47:40.193Z,11.10
2022-11-15T17:50:08.208Z,11.10
2022-11-15T17:52:35.984Z,10.93
2022-11-15T17:55:03.747Z,12.20
2022-11-15T17:57:31.475Z,10.53
2022-11-15T17:59:59.267Z,10.60
2022-11-15T18:02:28.455Z,10.83
2022-11-15T18:04:56.200Z,10.40
2022-11-15T18:07:24.035Z,10.47
2022-11-15T18:09:52.018Z,10.37
2022-11-15T18:12:19.924Z,10.57
2022-11-15T18:14:47.634Z,11.07
2022-11-15T18:17:15.380Z,11.20
2022-11-15T18:19:44.429Z,10.87
2022-11-15T18:22:12.218Z,12.27
2022-11-15T18:24:41.403Z,12.27
2022-11-15T18:27:09.377Z,11.90
2022-11-15T18:29:38.000Z,11.87
2022-11-15T18:32:11.599Z,11.70
2022-11-15T18:34:39.717Z,11.17
2022-11-15T18:37:08.970Z,10.67
2022-11-15T18:39:37.719Z,10.07
2022-11-15T18:42:05.772Z,11.57
2022-11-15T18:44:33.486Z,11.37
2022-11-15T18:47:01.418Z,11.50
2022-11-15T18:49:29.503Z,10.93
2022-11-15T18:51:57.261Z,11.40
2022-11-15T18:54:31.059Z,14.87
2022-11-15T18:56:59.574Z,14.37
2022-11-15T18:59:28.187Z,11.30
2022-11-15T19:01:56.896Z,11.30
2022-11-15T19:04:24.759Z,12.13
2022-11-15T19:06:53.489Z,10.57
2022-11-15T19:09:21.333Z,11.13
2022-11-15T19:11:51.508Z,11.77
2022-11-15T19:14:23.916Z,11.37
2022-11-15T19:16:52.315Z,11.83
2022-11-15T19:19:21.587Z,12.00
2022-11-15T19:21:49.602Z,11.43
2022-11-15T19:24:17.468Z,12.37
2022-11-15T19:26:45.761Z,12.13
2022-11-15T19:29:15.228Z,11.27
2022-11-15T19:31:43.289Z,12.77
2022-11-15T19:34:12.822Z,12.47
2022-11-15T19:36:42.582Z,12.70
2022-11-15T19:39:13.020Z,11.43
2022-11-15T19:41:42.894Z,12.40
2022-11-15T19:44:11.151Z,11.13
2022-11-15T19:46:41.183Z,12.07
2022-11-15T19:49:11.190Z,12.13
2022-11-15T19:51:41.598Z,13.93
2022-11-15T19:54:10.518Z,13.07
2022-11-15T19:56:39.700Z,13.40
2022-11-15T19:59:07.687Z,12.90
2022-11-15T20:01:38.755Z,12.90
2022-11-15T20:04:10.031Z,13.17
2022-11-15T20:06:42.007Z,13.10
2022-11-15T20:09:13.247Z,13.50
2022-11-15T20:11:41.010Z,12.93
2022-11-15T20:14:10.898Z,12.67
2022-11-15T20:16:38.682Z,13.10
2022-11-15T20:19:08.735Z,13.03
2022-11-15T20:21:37.584Z,12.63
2022-11-15T20:24:05.987Z,13.57
2022-11-15T20:26:33.739Z,13.43
2022-11-15T20:29:03.199Z,13.53
2022-11-15T20:31:31.479Z,13.63
2022-11-15T20:33:59.198Z,13.87
2022-11-15T20:36:28.647Z,12.83
2022-11-15T20:38:59.105Z,13.57
2022-11-15T20:41:27.466Z,13.10
2022-11-15T20:43:55.236Z,15.07
2022-11-15T20:46:23.027Z,13.53
2022-11-15T20:48:50.809Z,11.93
2022-11-15T20:51:19.886Z,12.60
2022-11-15T20:53:50.060Z,11.93
2022-11-15T20:56:19.824Z,14.93
2022-11-15T20:58:50.046Z,15.00
2022-11-15T21:01:23.109Z,14.57
2022-11-15T21:03:51.703Z,13.77
2022-11-15T21:06:20.952Z,14.10
2022-11-15T21:09:08.302Z,14.77
2022-11-15T21:11:53.610Z,14.13
2022-11-15T21:14:21.559Z,12.80
2022-11-15T21:16:49.315Z,14.00
2022-11-15T21:19:17.208Z,13.87
2022-11-15T21:21:44.990Z,15.10
2022-11-15T21:24:14.773Z,11.90
2022-11-15T21:26:42.898Z,14.73
2022-11-15T21:29:10.641Z,15.23
2022-11-15T21:31:38.375Z,14.63
2022-11-15T21:34:07.315Z,14.93
2022-11-15T21:36:35.095Z,16.70
2022-11-15T21:39:03.144Z,14.43
2022-11-15T21:41:32.445Z,15.03
2022-11-15T21:44:00.428Z,16.50
2022-11-15T21:46:29.216Z,15.43
2022-11-15T21:48:57.671Z,15.03
2022-11-15T21:51:26.379Z,17.23
2022-11-15T21:53:56.288Z,15.87
2022-11-15T21:56:24.241Z,15.83
2022-11-15T21:58:53.867Z,16.30
2022-11-15T22:01:39.617Z,16.27
2022-11-15T22:04:07.760Z,15.43
2022-11-15T22:06:36.190Z,14.77
2022-11-15T22:09:05.094Z,15.67
2022-11-15T22:11:33.502Z,16.23
2022-11-15T22:14:03.178Z,15.73
2022-11-15T22:16:30.934Z,16.50
2022-11-15T22:18:59.067Z,16.77
2022-11-15T22:21:26.951Z,16.60
2022-11-15T22:23:57.639Z,15.67
2022-11-15T22:26:25.499Z,13.37
2022-11-15T22:28:53.777Z,17.00
2022-11-15T22:31:23.082Z,17.23
2022-11-15T22:33:51.067Z,16.77
2022-11-15T22:36:18.972Z,17.70
2022-11-15T22:38:46.862Z,16.53
2022-11-15T22:41:14.742Z,16.97
2022-11-15T22:43:43.030Z,17.53
2022-11-15T22:46:11.608Z,17.13
2022-11-15T22:48:41.039Z,17.73
2022-11-15T22:51:09.343Z,17.37
2022-11-15T22:53:37.338Z,14.63
2022-11-15T22:56:07.015Z,15.30
2022-11-15T22:58:35.949Z,16.87
2022-11-15T23:01:05.967Z,14.73
2022-11-15T23:03:35.136Z,15.70
2022-11-15T23:06:06.636Z,16.93
2022-11-15T23:08:34.902Z,15.07
2022-11-15T23:11:20.854Z,15.20
2022-11-15T23:13:51.360Z,16.30
2022-11-15T23:16:34.207Z,16.97
2022-11-15T23:19:04.304Z,15.50
2022-11-15T23:21:52.660Z,19.27
2022-11-15T23:24:20.893Z,17.70
2022-11-15T23:26:50.993Z,17.57
2022-11-15T23:29:21.931Z,19.47
2022-11-15T23:32:07.651Z,19.03
2022-11-15T23:34:38.286Z,19.07
2022-11-15T23:37:09.408Z,18.60
2022-11-15T23:39:37.356Z,17.10
2022-11-15T23:42:09.121Z,19.20
2022-11-15T23:44:37.678Z,18.33
2022-11-15T23:47:05.990Z,18.23
2022-11-15T23:49:33.984Z,17.37
2022-11-15T23:52:01.856Z,18.23
2022-11-15T23:54:31.783Z,19.80
2022-11-15T23:56:59.837Z,20.03
2022-11-15T23:59:27.791Z,19.23
